sensor_id;sensor_type;location;lat;lon;timestamp;temperature;humidity
38428;DHT22;24211;49.980;19.776;2023-09-19T00:01:52;20.50;99.90
38428;DHT22;24211;49.980;19.776;2023-09-19T00:04:20;20.50;99.90
38428;DHT22;24211;49.980;19.776;2023-09-19T00:06:50;20.50;99.90
38428;DHT22;24211;49.980;19.776;2023-09-19T00:09:17;20.50;99.90
38428;DHT22;24211;49.980;19.776;2023-09-19T00:11:45;20.40;99.90
38428;DHT22;24211;49.980;19.776;2023-09-19T00:14:14;20.40;99.90
38428;DHT22;24211;49.980;19.776;2023-09-19T00:16:41;20.40;99.90
38428;DHT22;24211;49.980;19.776;2023-09-19T00:19:08;20.40;99.90
38428;DHT22;24211;49.980;19.776;2023-09-19T00:21:36;20.40;99.90
38428;DHT22;24211;49.980;19.776;2023-09-19T00:24:04;20.40;99.90
38428;DHT22;24211;49.980;19.776;2023-09-19T00:26:33;20.40;99.90
38428;DHT22;24211;49.980;19.776;2023-09-19T00:29:01;20.30;99.90
38428;DHT22;24211;49.980;19.776;2023-09-19T00:31:35;20.30;99.90
38428;DHT22;24211;49.980;19.776;2023-09-19T00:34:04;20.30;99.90
38428;DHT22;24211;49.980;19.776;2023-09-19T00:36:33;20.30;99.90
38428;DHT22;24211;49.980;19.776;2023-09-19T00:39:00;20.30;99.90
38428;DHT22;24211;49.980;19.776;2023-09-19T00:41:28;20.30;99.90
38428;DHT22;24211;49.980;19.776;2023-09-19T00:43:57;20.30;99.90
38428;DHT22;24211;49.980;19.776;2023-09-19T00:46:28;20.30;99.90
38428;DHT22;24211;49.980;19.776;2023-09-19T00:48:56;20.10;99.90
38428;DHT22;24211;49.980;19.776;2023-09-19T00:51:24;19.90;99.90
38428;DHT22;24211;49.980;19.776;2023-09-19T00:53:52;20.00;99.90
38428;DHT22;24211;49.980;19.776;2023-09-19T00:56:21;20.10;99.90
38428;DHT22;24211;49.980;19.776;2023-09-19T00:58:48;20.10;99.90
38428;DHT22;24211;49.980;19.776;2023-09-19T01:01:16;20.10;99.90
38428;DHT22;24211;49.980;19.776;2023-09-19T01:03:44;20.10;99.90
38428;DHT22;24211;49.980;19.776;2023-09-19T01:06:13;20.10;99.90
38428;DHT22;24211;49.980;19.776;2023-09-19T01:08:40;20.10;99.90
38428;DHT22;24211;49.980;19.776;2023-09-19T01:11:13;20.10;99.90
38428;DHT22;24211;49.980;19.776;2023-09-19T01:17:08;20.10;99.90
38428;DHT22;24211;49.980;19.776;2023-09-19T01:20:17;20.10;99.90
38428;DHT22;24211;49.980;19.776;2023-09-19T01:23:35;20.10;99.90
38428;DHT22;24211;49.980;19.776;2023-09-19T01:29:17;20.00;99.90
38428;DHT22;24211;49.980;19.776;2023-09-19T01:32:05;20.00;99.90
38428;DHT22;24211;49.980;19.776;2023-09-19T01:34:56;20.00;99.90
38428;DHT22;24211;49.980;19.776;2023-09-19T01:37:31;20.00;99.90
38428;DHT22;24211;49.980;19.776;2023-09-19T01:40:01;20.00;99.90
38428;DHT22;24211;49.980;19.776;2023-09-19T01:42:58;19.90;99.90
38428;DHT22;24211;49.980;19.776;2023-09-19T01:51:46;19.90;99.90
38428;DHT22;24211;49.980;19.776;2023-09-19T01:54:30;19.90;99.90
38428;DHT22;24211;49.980;19.776;2023-09-19T01:57:09;19.90;99.90
38428;DHT22;24211;49.980;19.776;2023-09-19T01:59:50;19.90;99.90
38428;DHT22;24211;49.980;19.776;2023-09-19T02:02:22;19.80;99.90
38428;DHT22;24211;49.980;19.776;2023-09-19T02:04:50;19.80;99.90
38428;DHT22;24211;49.980;19.776;2023-09-19T02:07:18;19.80;99.90
38428;DHT22;24211;49.980;19.776;2023-09-19T02:09:45;19.80;99.90
38428;DHT22;24211;49.980;19.776;2023-09-19T02:12:14;19.80;99.90
38428;DHT22;24211;49.980;19.776;2023-09-19T02:14:42;19.80;99.90
38428;DHT22;24211;49.980;19.776;2023-09-19T02:17:09;19.80;99.90
38428;DHT22;24211;49.980;19.776;2023-09-19T02:19:39;19.80;99.90
38428;DHT22;24211;49.980;19.776;2023-09-19T02:22:08;19.80;99.90
38428;DHT22;24211;49.980;19.776;2023-09-19T02:24:37;19.80;99.90
38428;DHT22;24211;49.980;19.776;2023-09-19T02:27:05;19.80;99.90
38428;DHT22;24211;49.980;19.776;2023-09-19T02:29:32;19.80;99.90
38428;DHT22;24211;49.980;19.776;2023-09-19T02:32:02;19.80;99.90
38428;DHT22;24211;49.980;19.776;2023-09-19T02:34:31;19.70;99.90
38428;DHT22;24211;49.980;19.776;2023-09-19T02:36:59;19.70;99.90
38428;DHT22;24211;49.980;19.776;2023-09-19T02:39:26;19.70;99.90
38428;DHT22;24211;49.980;19.776;2023-09-19T02:41:55;19.70;99.90
38428;DHT22;24211;49.980;19.776;2023-09-19T02:44:22;19.70;99.90
38428;DHT22;24211;49.980;19.776;2023-09-19T02:46:50;19.70;99.90
38428;DHT22;24211;49.980;19.776;2023-09-19T02:49:18;19.70;99.90
38428;DHT22;24211;49.980;19.776;2023-09-19T02:51:45;19.70;99.90
38428;DHT22;24211;49.980;19.776;2023-09-19T02:54:14;19.70;99.90
38428;DHT22;24211;49.980;19.776;2023-09-19T02:56:43;19.70;99.90
38428;DHT22;24211;49.980;19.776;2023-09-19T02:59:10;19.70;99.90
38428;DHT22;24211;49.980;19.776;2023-09-19T03:01:38;19.70;99.90
38428;DHT22;24211;49.980;19.776;2023-09-19T03:04:05;19.70;99.90
38428;DHT22;24211;49.980;19.776;2023-09-19T03:06:38;19.70;99.90
38428;DHT22;24211;49.980;19.776;2023-09-19T03:09:05;19.70;99.90
38428;DHT22;24211;49.980;19.776;2023-09-19T03:11:39;19.60;99.90
38428;DHT22;24211;49.980;19.776;2023-09-19T03:14:07;19.60;99.90
38428;DHT22;24211;49.980;19.776;2023-09-19T03:16:34;19.60;99.90
38428;DHT22;24211;49.980;19.776;2023-09-19T03:19:04;19.70;99.90
38428;DHT22;24211;49.980;19.776;2023-09-19T03:21:32;19.60;99.90
38428;DHT22;24211;49.980;19.776;2023-09-19T03:23:59;19.60;99.90
38428;DHT22;24211;49.980;19.776;2023-09-19T03:26:27;19.60;99.90
38428;DHT22;24211;49.980;19.776;2023-09-19T03:28:54;19.60;99.90
38428;DHT22;24211;49.980;19.776;2023-09-19T03:31:21;19.60;99.90
38428;DHT22;24211;49.980;19.776;2023-09-19T03:33:49;19.60;99.90
38428;DHT22;24211;49.980;19.776;2023-09-19T03:36:16;19.60;99.90
38428;DHT22;24211;49.980;19.776;2023-09-19T03:38:43;19.60;99.90
38428;DHT22;24211;49.980;19.776;2023-09-19T03:41:10;19.60;99.90
38428;DHT22;24211;49.980;19.776;2023-09-19T03:43:41;19.60;99.90
38428;DHT22;24211;49.980;19.776;2023-09-19T03:46:09;19.60;99.90
38428;DHT22;24211;49.980;19.776;2023-09-19T03:48:38;19.60;99.90
38428;DHT22;24211;49.980;19.776;2023-09-19T03:51:05;19.60;99.90
38428;DHT22;24211;49.980;19.776;2023-09-19T03:53:32;19.60;99.90
38428;DHT22;24211;49.980;19.776;2023-09-19T03:56:00;19.60;99.90
38428;DHT22;24211;49.980;19.776;2023-09-19T03:58:31;19.50;99.90
38428;DHT22;24211;49.980;19.776;2023-09-19T04:00:58;19.60;99.90
38428;DHT22;24211;49.980;19.776;2023-09-19T04:03:27;19.50;99.90
38428;DHT22;24211;49.980;19.776;2023-09-19T04:06:02;19.50;99.90
38428;DHT22;24211;49.980;19.776;2023-09-19T04:08:30;19.50;99.90
38428;DHT22;24211;49.980;19.776;2023-09-19T04:10:57;19.50;99.90
38428;DHT22;24211;49.980;19.776;2023-09-19T04:13:25;19.50;99.90
38428;DHT22;24211;49.980;19.776;2023-09-19T04:15:53;19.50;99.90
38428;DHT22;24211;49.980;19.776;2023-09-19T04:18:20;19.50;99.90
38428;DHT22;24211;49.980;19.776;2023-09-19T04:20:49;19.60;99.90
38428;DHT22;24211;49.980;19.776;2023-09-19T04:23:17;19.50;99.90
38428;DHT22;24211;49.980;19.776;2023-09-19T04:25:47;19.50;99.90
38428;DHT22;24211;49.980;19.776;2023-09-19T04:28:15;19.50;99.90
38428;DHT22;24211;49.980;19.776;2023-09-19T04:30:43;19.50;99.90
38428;DHT22;24211;49.980;19.776;2023-09-19T04:33:10;19.50;99.90
38428;DHT22;24211;49.980;19.776;2023-09-19T04:35:38;19.50;99.90
38428;DHT22;24211;49.980;19.776;2023-09-19T04:38:05;19.50;99.90
38428;DHT22;24211;49.980;19.776;2023-09-19T04:40:34;19.50;99.90
38428;DHT22;24211;49.980;19.776;2023-09-19T04:43:02;19.50;99.90
38428;DHT22;24211;49.980;19.776;2023-09-19T04:45:30;19.50;99.90
38428;DHT22;24211;49.980;19.776;2023-09-19T04:47:57;19.50;99.90
38428;DHT22;24211;49.980;19.776;2023-09-19T04:50:24;19.50;99.90
38428;DHT22;24211;49.980;19.776;2023-09-19T04:52:53;19.50;99.90
38428;DHT22;24211;49.980;19.776;2023-09-19T04:55:21;19.50;99.90
38428;DHT22;24211;49.980;19.776;2023-09-19T04:57:50;19.50;99.90
38428;DHT22;24211;49.980;19.776;2023-09-19T05:00:19;19.50;99.90
38428;DHT22;24211;49.980;19.776;2023-09-19T05:02:51;19.50;99.90
38428;DHT22;24211;49.980;19.776;2023-09-19T05:05:21;19.50;99.90
38428;DHT22;24211;49.980;19.776;2023-09-19T05:07:50;19.50;99.90
38428;DHT22;24211;49.980;19.776;2023-09-19T05:10:18;19.50;99.90
38428;DHT22;24211;49.980;19.776;2023-09-19T05:12:46;19.50;99.90
38428;DHT22;24211;49.980;19.776;2023-09-19T05:15:15;19.50;99.90
38428;DHT22;24211;49.980;19.776;2023-09-19T05:17:51;19.50;99.90
38428;DHT22;24211;49.980;19.776;2023-09-19T05:20:25;19.50;99.90
38428;DHT22;24211;49.980;19.776;2023-09-19T05:23:04;19.50;99.90
38428;DHT22;24211;49.980;19.776;2023-09-19T05:25:37;19.50;99.90
38428;DHT22;24211;49.980;19.776;2023-09-19T05:28:07;19.50;99.90
38428;DHT22;24211;49.980;19.776;2023-09-19T05:30:39;19.50;99.90
38428;DHT22;24211;49.980;19.776;2023-09-19T05:33:07;19.50;99.90
38428;DHT22;24211;49.980;19.776;2023-09-19T05:35:36;19.50;99.90
38428;DHT22;24211;49.980;19.776;2023-09-19T05:38:08;19.50;99.90
38428;DHT22;24211;49.980;19.776;2023-09-19T05:40:36;19.50;99.90
38428;DHT22;24211;49.980;19.776;2023-09-19T05:43:05;19.50;99.90
38428;DHT22;24211;49.980;19.776;2023-09-19T05:45:33;19.50;99.90
38428;DHT22;24211;49.980;19.776;2023-09-19T05:48:10;19.50;99.90
38428;DHT22;24211;49.980;19.776;2023-09-19T05:50:40;19.60;99.90
38428;DHT22;24211;49.980;19.776;2023-09-19T05:53:08;19.50;99.90
38428;DHT22;24211;49.980;19.776;2023-09-19T05:55:39;19.60;99.90
38428;DHT22;24211;49.980;19.776;2023-09-19T05:58:07;19.50;99.90
38428;DHT22;24211;49.980;19.776;2023-09-19T06:00:34;19.50;99.90
38428;DHT22;24211;49.980;19.776;2023-09-19T06:03:05;19.50;99.90
38428;DHT22;24211;49.980;19.776;2023-09-19T06:05:32;19.50;99.90
38428;DHT22;24211;49.980;19.776;2023-09-19T06:08:00;19.50;99.90
38428;DHT22;24211;49.980;19.776;2023-09-19T06:10:28;19.50;99.90
38428;DHT22;24211;49.980;19.776;2023-09-19T06:12:56;19.50;99.90
38428;DHT22;24211;49.980;19.776;2023-09-19T06:15:25;19.50;99.90
38428;DHT22;24211;49.980;19.776;2023-09-19T06:17:54;19.50;99.90
38428;DHT22;24211;49.980;19.776;2023-09-19T06:20:23;19.50;99.90
38428;DHT22;24211;49.980;19.776;2023-09-19T06:22:52;19.50;99.90
38428;DHT22;24211;49.980;19.776;2023-09-19T06:25:21;19.50;99.90
38428;DHT22;24211;49.980;19.776;2023-09-19T06:27:53;19.50;99.90
38428;DHT22;24211;49.980;19.776;2023-09-19T06:30:23;19.50;99.90
38428;DHT22;24211;49.980;19.776;2023-09-19T06:32:56;19.50;99.90
38428;DHT22;24211;49.980;19.776;2023-09-19T06:35:25;19.50;99.90
38428;DHT22;24211;49.980;19.776;2023-09-19T06:37:53;19.50;99.90
38428;DHT22;24211;49.980;19.776;2023-09-19T06:40:21;19.50;99.90
38428;DHT22;24211;49.980;19.776;2023-09-19T06:42:50;19.50;99.90
38428;DHT22;24211;49.980;19.776;2023-09-19T06:45:21;19.50;99.90
38428;DHT22;24211;49.980;19.776;2023-09-19T06:47:50;19.50;99.90
38428;DHT22;24211;49.980;19.776;2023-09-19T06:50:21;19.50;99.90
38428;DHT22;24211;49.980;19.776;2023-09-19T06:52:53;19.50;99.90
38428;DHT22;24211;49.980;19.776;2023-09-19T06:55:22;19.50;99.90
38428;DHT22;24211;49.980;19.776;2023-09-19T06:57:55;19.50;99.90
38428;DHT22;24211;49.980;19.776;2023-09-19T07:00:23;19.50;99.90
38428;DHT22;24211;49.980;19.776;2023-09-19T07:03:00;19.50;99.90
38428;DHT22;24211;49.980;19.776;2023-09-19T07:05:40;19.50;99.90
38428;DHT22;24211;49.980;19.776;2023-09-19T07:08:34;19.50;99.90
38428;DHT22;24211;49.980;19.776;2023-09-19T07:11:07;19.50;99.90
38428;DHT22;24211;49.980;19.776;2023-09-19T07:14:08;19.50;99.90
38428;DHT22;24211;49.980;19.776;2023-09-19T07:16:39;19.40;99.90
38428;DHT22;24211;49.980;19.776;2023-09-19T07:19:09;19.40;99.90
38428;DHT22;24211;49.980;19.776;2023-09-19T07:21:57;19.50;99.90
38428;DHT22;24211;49.980;19.776;2023-09-19T07:24:26;19.50;99.90
38428;DHT22;24211;49.980;19.776;2023-09-19T07:30:18;19.40;99.90
38428;DHT22;24211;49.980;19.776;2023-09-19T07:32:45;19.50;99.90
38428;DHT22;24211;49.980;19.776;2023-09-19T07:35:13;19.50;99.90
38428;DHT22;24211;49.980;19.776;2023-09-19T07:37:40;19.50;99.90
38428;DHT22;24211;49.980;19.776;2023-09-19T07:40:08;19.40;99.90
38428;DHT22;24211;49.980;19.776;2023-09-19T07:42:36;19.30;99.90
38428;DHT22;24211;49.980;19.776;2023-09-19T07:45:06;19.30;99.90
38428;DHT22;24211;49.980;19.776;2023-09-19T07:47:35;19.30;99.90
38428;DHT22;24211;49.980;19.776;2023-09-19T07:50:03;19.20;99.90
38428;DHT22;24211;49.980;19.776;2023-09-19T07:52:31;19.10;99.90
38428;DHT22;24211;49.980;19.776;2023-09-19T07:55:00;19.00;99.90
38428;DHT22;24211;49.980;19.776;2023-09-19T07:57:33;19.00;99.90
38428;DHT22;24211;49.980;19.776;2023-09-19T08:00:01;18.90;99.90
38428;DHT22;24211;49.980;19.776;2023-09-19T08:02:37;18.90;99.90
38428;DHT22;24211;49.980;19.776;2023-09-19T08:05:06;18.90;99.90
38428;DHT22;24211;49.980;19.776;2023-09-19T08:07:39;18.80;99.90
38428;DHT22;24211;49.980;19.776;2023-09-19T08:10:08;18.80;99.90
38428;DHT22;24211;49.980;19.776;2023-09-19T08:12:40;18.80;99.90
38428;DHT22;24211;49.980;19.776;2023-09-19T08:15:14;18.80;99.90
38428;DHT22;24211;49.980;19.776;2023-09-19T08:17:44;18.70;99.90
38428;DHT22;24211;49.980;19.776;2023-09-19T08:20:11;18.70;99.90
38428;DHT22;24211;49.980;19.776;2023-09-19T08:22:49;18.70;99.90
38428;DHT22;24211;49.980;19.776;2023-09-19T08:25:22;18.60;99.90
38428;DHT22;24211;49.980;19.776;2023-09-19T08:27:53;18.60;99.90
38428;DHT22;24211;49.980;19.776;2023-09-19T08:30:25;18.60;99.90
38428;DHT22;24211;49.980;19.776;2023-09-19T08:33:00;18.60;99.90
38428;DHT22;24211;49.980;19.776;2023-09-19T08:35:28;18.60;99.90
38428;DHT22;24211;49.980;19.776;2023-09-19T08:37:56;18.60;99.90
38428;DHT22;24211;49.980;19.776;2023-09-19T08:40:23;18.70;99.90
38428;DHT22;24211;49.980;19.776;2023-09-19T08:42:56;18.70;99.90
38428;DHT22;24211;49.980;19.776;2023-09-19T08:45:24;18.70;99.90
38428;DHT22;24211;49.980;19.776;2023-09-19T08:50:30;18.60;99.90
38428;DHT22;24211;49.980;19.776;2023-09-19T08:53:01;18.60;99.90
38428;DHT22;24211;49.980;19.776;2023-09-19T08:55:43;18.50;99.90
38428;DHT22;24211;49.980;19.776;2023-09-19T08:58:16;18.50;99.90
38428;DHT22;24211;49.980;19.776;2023-09-19T09:00:52;18.60;99.90
38428;DHT22;24211;49.980;19.776;2023-09-19T09:03:21;18.60;99.90
38428;DHT22;24211;49.980;19.776;2023-09-19T09:05:50;18.60;99.90
38428;DHT22;24211;49.980;19.776;2023-09-19T09:08:19;18.60;99.90
38428;DHT22;24211;49.980;19.776;2023-09-19T09:10:49;18.60;99.90
38428;DHT22;24211;49.980;19.776;2023-09-19T09:13:17;18.60;99.90
38428;DHT22;24211;49.980;19.776;2023-09-19T09:15:45;18.70;99.90
38428;DHT22;24211;49.980;19.776;2023-09-19T09:18:12;18.70;99.90
38428;DHT22;24211;49.980;19.776;2023-09-19T09:20:40;18.70;99.90
38428;DHT22;24211;49.980;19.776;2023-09-19T09:23:08;18.80;99.90
38428;DHT22;24211;49.980;19.776;2023-09-19T09:25:54;18.80;99.90
38428;DHT22;24211;49.980;19.776;2023-09-19T09:28:45;18.80;99.90
38428;DHT22;24211;49.980;19.776;2023-09-19T09:31:24;18.80;99.90
38428;DHT22;24211;49.980;19.776;2023-09-19T09:33:56;18.80;99.90
38428;DHT22;24211;49.980;19.776;2023-09-19T09:36:38;18.80;99.90
38428;DHT22;24211;49.980;19.776;2023-09-19T09:39:14;18.80;99.90
38428;DHT22;24211;49.980;19.776;2023-09-19T09:41:56;18.90;99.90
38428;DHT22;24211;49.980;19.776;2023-09-19T09:44:27;18.90;99.90
38428;DHT22;24211;49.980;19.776;2023-09-19T09:47:10;18.90;99.90
38428;DHT22;24211;49.980;19.776;2023-09-19T09:49:56;18.90;99.90
38428;DHT22;24211;49.980;19.776;2023-09-19T09:52:44;18.90;99.90
38428;DHT22;24211;49.980;19.776;2023-09-19T09:55:13;18.90;99.90
38428;DHT22;24211;49.980;19.776;2023-09-19T09:57:40;19.00;99.90
38428;DHT22;24211;49.980;19.776;2023-09-19T10:00:10;19.00;99.90
38428;DHT22;24211;49.980;19.776;2023-09-19T10:02:40;19.10;99.90
38428;DHT22;24211;49.980;19.776;2023-09-19T10:05:14;19.10;99.90
38428;DHT22;24211;49.980;19.776;2023-09-19T10:07:55;19.10;99.90
38428;DHT22;24211;49.980;19.776;2023-09-19T10:10:33;19.20;99.90
38428;DHT22;24211;49.980;19.776;2023-09-19T10:13:11;19.20;99.90
38428;DHT22;24211;49.980;19.776;2023-09-19T10:15:43;19.30;99.90
38428;DHT22;24211;49.980;19.776;2023-09-19T10:18:23;19.20;99.90
38428;DHT22;24211;49.980;19.776;2023-09-19T10:20:54;19.20;99.90
38428;DHT22;24211;49.980;19.776;2023-09-19T10:23:25;19.30;99.90
38428;DHT22;24211;49.980;19.776;2023-09-19T10:25:57;19.30;99.90
38428;DHT22;24211;49.980;19.776;2023-09-19T10:28:30;19.30;99.90
38428;DHT22;24211;49.980;19.776;2023-09-19T10:30:58;19.40;99.90
38428;DHT22;24211;49.980;19.776;2023-09-19T10:33:35;19.40;99.90
38428;DHT22;24211;49.980;19.776;2023-09-19T10:36:05;19.30;99.90
38428;DHT22;24211;49.980;19.776;2023-09-19T10:38:33;19.30;99.90
38428;DHT22;24211;49.980;19.776;2023-09-19T10:41:03;19.30;99.90
38428;DHT22;24211;49.980;19.776;2023-09-19T10:43:33;19.30;99.90
38428;DHT22;24211;49.980;19.776;2023-09-19T10:46:07;19.20;99.90
38428;DHT22;24211;49.980;19.776;2023-09-19T10:48:39;19.20;99.90
38428;DHT22;24211;49.980;19.776;2023-09-19T10:51:11;19.20;99.90
38428;DHT22;24211;49.980;19.776;2023-09-19T10:53:47;19.20;99.90
38428;DHT22;24211;49.980;19.776;2023-09-19T10:56:23;19.30;99.90
38428;DHT22;24211;49.980;19.776;2023-09-19T10:59:08;19.30;99.90
38428;DHT22;24211;49.980;19.776;2023-09-19T11:04:30;19.40;99.90
38428;DHT22;24211;49.980;19.776;2023-09-19T11:07:12;19.40;99.90
38428;DHT22;24211;49.980;19.776;2023-09-19T11:16:02;19.40;99.90
38428;DHT22;24211;49.980;19.776;2023-09-19T11:48:08;19.50;99.90
38428;DHT22;24211;49.980;19.776;2023-09-19T11:50:41;19.40;99.90
38428;DHT22;24211;49.980;19.776;2023-09-19T11:53:14;19.50;99.90
38428;DHT22;24211;49.980;19.776;2023-09-19T11:55:43;19.40;99.90
38428;DHT22;24211;49.980;19.776;2023-09-19T11:58:13;19.50;99.90
38428;DHT22;24211;49.980;19.776;2023-09-19T12:00:43;19.40;99.90
38428;DHT22;24211;49.980;19.776;2023-09-19T12:03:14;19.50;99.90
38428;DHT22;24211;49.980;19.776;2023-09-19T12:05:41;19.50;99.90
38428;DHT22;24211;49.980;19.776;2023-09-19T12:08:10;19.50;99.90
38428;DHT22;24211;49.980;19.776;2023-09-19T12:10:48;19.50;99.90
38428;DHT22;24211;49.980;19.776;2023-09-19T12:13:17;19.50;99.90
38428;DHT22;24211;49.980;19.776;2023-09-19T12:15:46;19.50;99.90
38428;DHT22;24211;49.980;19.776;2023-09-19T12:18:30;19.50;99.90
38428;DHT22;24211;49.980;19.776;2023-09-19T12:20:58;19.50;99.90
38428;DHT22;24211;49.980;19.776;2023-09-19T12:23:26;19.50;99.90
38428;DHT22;24211;49.980;19.776;2023-09-19T12:25:54;19.60;99.90
38428;DHT22;24211;49.980;19.776;2023-09-19T12:28:26;19.60;99.90
38428;DHT22;24211;49.980;19.776;2023-09-19T12:31:06;19.60;99.90
38428;DHT22;24211;49.980;19.776;2023-09-19T12:33:35;19.60;99.90
38428;DHT22;24211;49.980;19.776;2023-09-19T12:36:23;19.60;99.90
38428;DHT22;24211;49.980;19.776;2023-09-19T12:38:57;19.70;99.90
38428;DHT22;24211;49.980;19.776;2023-09-19T12:41:27;19.70;99.90
38428;DHT22;24211;49.980;19.776;2023-09-19T12:43:55;19.70;99.90
38428;DHT22;24211;49.980;19.776;2023-09-19T12:46:22;19.70;99.90
38428;DHT22;24211;49.980;19.776;2023-09-19T12:51:47;19.80;99.90
38428;DHT22;24211;49.980;19.776;2023-09-19T12:54:15;19.80;99.90
38428;DHT22;24211;49.980;19.776;2023-09-19T12:56:45;19.80;99.90
38428;DHT22;24211;49.980;19.776;2023-09-19T12:59:16;19.80;99.90
38428;DHT22;24211;49.980;19.776;2023-09-19T13:01:43;19.80;99.90
38428;DHT22;24211;49.980;19.776;2023-09-19T13:04:18;19.80;99.90
38428;DHT22;24211;49.980;19.776;2023-09-19T13:06:51;19.80;99.90
38428;DHT22;24211;49.980;19.776;2023-09-19T13:09:21;19.80;99.90
38428;DHT22;24211;49.980;19.776;2023-09-19T13:11:55;19.80;99.90
38428;DHT22;24211;49.980;19.776;2023-09-19T13:14:27;19.80;99.90
38428;DHT22;24211;49.980;19.776;2023-09-19T13:17:02;19.90;99.90
38428;DHT22;24211;49.980;19.776;2023-09-19T13:19:44;19.90;99.90
38428;DHT22;24211;49.980;19.776;2023-09-19T13:22:39;19.90;99.90
38428;DHT22;24211;49.980;19.776;2023-09-19T13:25:17;20.00;99.90
38428;DHT22;24211;49.980;19.776;2023-09-19T13:27:54;20.00;99.90
38428;DHT22;24211;49.980;19.776;2023-09-19T13:30:24;20.00;99.90
38428;DHT22;24211;49.980;19.776;2023-09-19T13:33:08;20.10;99.90
38428;DHT22;24211;49.980;19.776;2023-09-19T13:35:39;20.10;99.90
38428;DHT22;24211;49.980;19.776;2023-09-19T13:38:09;20.30;99.90
38428;DHT22;24211;49.980;19.776;2023-09-19T13:40:38;20.30;99.90
38428;DHT22;24211;49.980;19.776;2023-09-19T13:43:09;20.40;99.90
38428;DHT22;24211;49.980;19.776;2023-09-19T13:45:38;20.40;99.90
38428;DHT22;24211;49.980;19.776;2023-09-19T13:48:05;20.50;99.90
38428;DHT22;24211;49.980;19.776;2023-09-19T13:50:34;20.60;99.90
38428;DHT22;24211;49.980;19.776;2023-09-19T13:53:03;20.60;99.90
38428;DHT22;24211;49.980;19.776;2023-09-19T13:55:30;20.70;99.90
38428;DHT22;24211;49.980;19.776;2023-09-19T13:57:58;20.90;99.90
38428;DHT22;24211;49.980;19.776;2023-09-19T14:00:25;20.90;99.90
38428;DHT22;24211;49.980;19.776;2023-09-19T14:02:52;21.00;99.90
38428;DHT22;24211;49.980;19.776;2023-09-19T14:05:20;21.20;99.90
38428;DHT22;24211;49.980;19.776;2023-09-19T14:07:49;21.30;99.90
38428;DHT22;24211;49.980;19.776;2023-09-19T14:10:16;21.40;99.90
38428;DHT22;24211;49.980;19.776;2023-09-19T14:12:45;21.60;99.90
38428;DHT22;24211;49.980;19.776;2023-09-19T14:15:13;21.70;99.90
38428;DHT22;24211;49.980;19.776;2023-09-19T14:17:40;21.70;99.90
38428;DHT22;24211;49.980;19.776;2023-09-19T14:20:14;21.70;99.90
38428;DHT22;24211;49.980;19.776;2023-09-19T14:22:42;21.70;99.90
38428;DHT22;24211;49.980;19.776;2023-09-19T14:25:09;21.70;99.90
38428;DHT22;24211;49.980;19.776;2023-09-19T14:27:37;21.70;99.90
38428;DHT22;24211;49.980;19.776;2023-09-19T14:30:05;21.60;99.90
38428;DHT22;24211;49.980;19.776;2023-09-19T14:32:33;21.60;99.90
38428;DHT22;24211;49.980;19.776;2023-09-19T14:35:01;21.60;99.90
38428;DHT22;24211;49.980;19.776;2023-09-19T14:37:29;21.60;99.90
38428;DHT22;24211;49.980;19.776;2023-09-19T14:39:58;21.60;99.90
38428;DHT22;24211;49.980;19.776;2023-09-19T14:42:25;21.70;99.90
38428;DHT22;24211;49.980;19.776;2023-09-19T14:44:52;21.70;99.90
38428;DHT22;24211;49.980;19.776;2023-09-19T14:47:19;21.70;99.90
38428;DHT22;24211;49.980;19.776;2023-09-19T14:49:47;21.70;99.90
38428;DHT22;24211;49.980;19.776;2023-09-19T14:52:14;21.70;99.90
38428;DHT22;24211;49.980;19.776;2023-09-19T14:54:43;21.70;99.90
38428;DHT22;24211;49.980;19.776;2023-09-19T14:57:10;21.80;99.90
38428;DHT22;24211;49.980;19.776;2023-09-19T14:59:38;21.70;99.90
38428;DHT22;24211;49.980;19.776;2023-09-19T15:02:06;21.70;99.90
38428;DHT22;24211;49.980;19.776;2023-09-19T15:04:34;21.70;99.90
38428;DHT22;24211;49.980;19.776;2023-09-19T15:07:02;21.70;99.90
38428;DHT22;24211;49.980;19.776;2023-09-19T15:09:30;21.70;99.90
38428;DHT22;24211;49.980;19.776;2023-09-19T15:12:00;21.70;99.90
38428;DHT22;24211;49.980;19.776;2023-09-19T15:14:30;21.70;99.90
38428;DHT22;24211;49.980;19.776;2023-09-19T15:16:57;21.70;99.90
38428;DHT22;24211;49.980;19.776;2023-09-19T15:19:25;21.70;99.90
38428;DHT22;24211;49.980;19.776;2023-09-19T15:21:52;21.70;99.90
38428;DHT22;24211;49.980;19.776;2023-09-19T15:24:20;21.70;99.90
38428;DHT22;24211;49.980;19.776;2023-09-19T15:26:47;21.60;99.90
38428;DHT22;24211;49.980;19.776;2023-09-19T15:29:15;21.60;99.90
38428;DHT22;24211;49.980;19.776;2023-09-19T15:31:43;21.60;99.90
38428;DHT22;24211;49.980;19.776;2023-09-19T15:34:10;21.60;99.90
38428;DHT22;24211;49.980;19.776;2023-09-19T15:36:41;21.60;99.90
38428;DHT22;24211;49.980;19.776;2023-09-19T15:39:09;21.60;99.90
38428;DHT22;24211;49.980;19.776;2023-09-19T15:41:40;21.60;99.90
38428;DHT22;24211;49.980;19.776;2023-09-19T15:44:13;21.60;99.90
38428;DHT22;24211;49.980;19.776;2023-09-19T15:46:43;21.50;99.90
38428;DHT22;24211;49.980;19.776;2023-09-19T15:49:12;21.50;99.90
38428;DHT22;24211;49.980;19.776;2023-09-19T15:51:39;21.50;99.90
38428;DHT22;24211;49.980;19.776;2023-09-19T15:54:10;21.50;99.90
38428;DHT22;24211;49.980;19.776;2023-09-19T15:56:41;21.50;99.90
38428;DHT22;24211;49.980;19.776;2023-09-19T15:59:12;21.50;99.90
38428;DHT22;24211;49.980;19.776;2023-09-19T16:01:41;21.50;99.90
38428;DHT22;24211;49.980;19.776;2023-09-19T16:04:11;21.40;99.90
38428;DHT22;24211;49.980;19.776;2023-09-19T16:06:40;21.40;99.90
38428;DHT22;24211;49.980;19.776;2023-09-19T16:09:08;21.40;99.90
38428;DHT22;24211;49.980;19.776;2023-09-19T16:11:37;21.40;99.90
38428;DHT22;24211;49.980;19.776;2023-09-19T16:14:04;21.30;99.90
38428;DHT22;24211;49.980;19.776;2023-09-19T16:16:37;21.30;99.90
38428;DHT22;24211;49.980;19.776;2023-09-19T16:19:05;21.30;99.90
38428;DHT22;24211;49.980;19.776;2023-09-19T16:21:38;21.20;99.90
38428;DHT22;24211;49.980;19.776;2023-09-19T16:24:08;21.20;99.90
38428;DHT22;24211;49.980;19.776;2023-09-19T16:26:37;21.20;99.90
38428;DHT22;24211;49.980;19.776;2023-09-19T16:29:05;21.20;99.90
38428;DHT22;24211;49.980;19.776;2023-09-19T16:31:33;21.10;99.90
38428;DHT22;24211;49.980;19.776;2023-09-19T16:34:01;21.20;99.90
38428;DHT22;24211;49.980;19.776;2023-09-19T16:36:28;21.20;99.90
38428;DHT22;24211;49.980;19.776;2023-09-19T16:38:56;21.10;99.90